createdAt,value
2022-09-24T00:00:21.130Z,2.30
2022-09-24T00:03:12.076Z,2.50
2022-09-24T00:05:47.075Z,2.70
2022-09-24T00:08:19.832Z,2.90
2022-09-24T00:10:51.047Z,2.90
2022-09-24T00:13:21.529Z,2.90
2022-09-24T00:15:55.079Z,3.20
2022-09-24T00:18:26.059Z,3.40
2022-09-24T00:20:56.705Z,3.00
2022-09-24T00:23:28.397Z,2.90
2022-09-24T00:26:16.209Z,3.20
2022-09-24T00:28:52.650Z,3.00
2022-09-24T00:31:23.279Z,3.10
2022-09-24T00:33:54.727Z,3.20
2022-09-24T00:36:25.554Z,3.10
2022-09-24T00:38:58.836Z,2.90
2022-09-24T00:41:34.730Z,3.10
2022-09-24T00:44:42.767Z,2.90
2022-09-24T00:47:28.949Z,3.30
2022-09-24T00:50:33.172Z,3.40
2022-09-24T00:53:17.443Z,3.40
2022-09-24T00:55:52.263Z,3.20
2022-09-24T00:58:25.038Z,3.50
2022-09-24T01:01:02.264Z,3.20
2022-09-24T01:03:34.560Z,2.80
2022-09-24T01:06:05.324Z,3.60
2022-09-24T01:08:36.443Z,3.30
2022-09-24T01:11:31.174Z,3.10
2022-09-24T01:14:24.531Z,3.30
2022-09-24T01:17:30.185Z,3.60
2022-09-24T01:20:09.179Z,3.20
2022-09-24T01:22:51.463Z,4.40
2022-09-24T01:25:35.771Z,3.80
2022-09-24T01:28:31.490Z,3.80
2022-09-24T01:31:10.911Z,3.70
2022-09-24T01:33:41.850Z,3.20
2022-09-24T01:36:13.591Z,3.30
2022-09-24T01:38:47.249Z,3.40
2022-09-24T01:41:19.758Z,3.70
2022-09-24T01:43:51.278Z,3.80
2022-09-24T01:46:23.598Z,3.80
2022-09-24T01:48:56.542Z,3.10
2022-09-24T01:51:42.404Z,3.20
2022-09-24T01:54:24.955Z,3.60
2022-09-24T01:57:05.453Z,4.00
2022-09-24T01:59:45.864Z,3.70
2022-09-24T02:02:43.158Z,4.00
2022-09-24T02:05:32.268Z,3.80
2022-09-24T02:08:16.460Z,4.60
2022-09-24T02:11:01.236Z,4.00
2022-09-24T02:13:40.701Z,3.80
2022-09-24T02:16:16.664Z,4.10
2022-09-24T02:18:50.568Z,4.00
2022-09-24T02:21:23.632Z,3.40
2022-09-24T02:23:59.180Z,4.10
2022-09-24T02:26:29.754Z,4.00
2022-09-24T02:29:01.852Z,3.90
2022-09-24T02:31:35.520Z,4.10
2022-09-24T02:34:25.990Z,3.70
2022-09-24T02:37:12.381Z,4.10
2022-09-24T02:39:43.828Z,4.20
2022-09-24T02:42:16.577Z,3.40
2022-09-24T02:44:48.109Z,3.70
2022-09-24T02:47:19.530Z,3.50
2022-09-24T02:49:51.683Z,3.80
2022-09-24T02:52:22.913Z,3.60
2022-09-24T02:54:54.149Z,3.60
2022-09-24T02:57:24.650Z,3.70
2022-09-24T02:59:55.509Z,3.70
2022-09-24T03:02:26.566Z,3.40
2022-09-24T03:04:57.122Z,3.70
2022-09-24T03:07:30.438Z,3.60
2022-09-24T03:10:01.260Z,3.30
2022-09-24T03:12:31.759Z,3.60
2022-09-24T03:15:02.471Z,3.30
2022-09-24T03:17:34.008Z,3.80
2022-09-24T03:20:05.485Z,3.10
2022-09-24T03:22:37.005Z,3.70
2022-09-24T03:25:08.187Z,3.70
2022-09-24T03:27:40.408Z,4.40
2022-09-24T03:30:29.387Z,3.90
2022-09-24T03:33:00.438Z,4.40
2022-09-24T03:35:31.538Z,3.60
2022-09-24T03:38:02.510Z,3.70
2022-09-24T03:40:34.194Z,3.90
2022-09-24T03:43:07.849Z,3.50
2022-09-24T03:45:40.579Z,3.70
2022-09-24T03:48:12.701Z,4.00
2022-09-24T03:50:45.202Z,3.70
2022-09-24T03:53:17.220Z,3.70
2022-09-24T03:55:58.691Z,3.40
2022-09-24T03:58:29.920Z,3.20
2022-09-24T04:01:00.592Z,3.60
2022-09-24T04:03:31.141Z,3.40
2022-09-24T04:06:02.021Z,3.50
2022-09-24T04:08:33.471Z,3.70
2022-09-24T04:11:06.907Z,3.60
2022-09-24T04:13:41.849Z,3.90
2022-09-24T04:16:16.438Z,3.70
2022-09-24T04:18:50.165Z,3.90
2022-09-24T04:21:21.929Z,4.00
2022-09-24T04:23:52.817Z,3.80
2022-09-24T04:26:23.263Z,3.80
2022-09-24T04:28:54.029Z,4.10
2022-09-24T04:31:24.679Z,4.60
2022-09-24T04:33:56.032Z,3.90
2022-09-24T04:36:27.178Z,4.00
2022-09-24T04:39:00.142Z,4.10
2022-09-24T04:41:31.107Z,3.40
2022-09-24T04:44:05.282Z,3.50
2022-09-24T04:46:37.267Z,3.50
2022-09-24T04:49:10.068Z,3.70
2022-09-24T04:51:42.029Z,3.50
2022-09-24T04:54:13.272Z,4.10
2022-09-24T04:56:44.477Z,4.00
2022-09-24T04:59:15.942Z,4.20
2022-09-24T05:01:47.744Z,4.00
2022-09-24T05:04:18.933Z,4.00
2022-09-24T05:06:49.725Z,3.40
2022-09-24T05:09:21.717Z,3.70
2022-09-24T05:11:52.770Z,4.00
2022-09-24T05:14:23.537Z,3.80
2022-09-24T05:16:54.150Z,3.40
2022-09-24T05:19:24.709Z,3.50
2022-09-24T05:27:08.430Z,3.20
2022-09-24T05:30:23.157Z,3.50
2022-09-24T05:33:20.686Z,3.80
2022-09-24T05:36:00.348Z,4.00
2022-09-24T05:38:33.482Z,3.50
2022-09-24T05:41:11.164Z,3.60
2022-09-24T05:43:44.024Z,3.80
2022-09-24T05:46:19.113Z,3.50
2022-09-24T05:48:50.301Z,3.80
2022-09-24T05:51:21.169Z,3.30
2022-09-24T05:53:54.675Z,3.00
2022-09-24T05:56:25.254Z,3.20
2022-09-24T05:59:12.196Z,3.30
2022-09-24T06:01:51.215Z,3.70
2022-09-24T06:05:22.306Z,3.40
2022-09-24T06:08:22.659Z,3.30
2022-09-24T06:10:52.965Z,3.40
2022-09-24T06:13:23.119Z,4.00
2022-09-24T06:15:53.789Z,3.70
2022-09-24T06:18:25.262Z,3.60
2022-09-24T06:21:03.369Z,3.30
2022-09-24T06:23:37.049Z,3.50
2022-09-24T06:26:14.399Z,3.70
2022-09-24T06:31:40.540Z,3.20
2022-09-24T06:39:16.254Z,3.60
2022-09-24T06:41:47.004Z,3.20
2022-09-24T06:44:19.681Z,3.30
2022-09-24T06:46:51.626Z,3.10
2022-09-24T06:49:22.194Z,3.40
2022-09-24T06:51:55.594Z,3.00
2022-09-24T06:54:26.700Z,3.30
2022-09-24T06:56:57.327Z,3.10
2022-09-24T06:59:29.203Z,3.30
2022-09-24T07:02:00.259Z,3.60
2022-09-24T07:04:30.897Z,3.10
2022-09-24T07:07:18.548Z,3.20
2022-09-24T07:12:25.518Z,3.40
2022-09-24T07:15:01.447Z,3.00
2022-09-24T07:17:34.022Z,4.30
2022-09-24T07:20:05.846Z,5.70
2022-09-24T07:22:41.426Z,3.80
2022-09-24T07:25:14.002Z,3.20
2022-09-24T07:27:44.464Z,3.10
2022-09-24T07:30:18.979Z,2.60
2022-09-24T07:32:50.942Z,2.80
2022-09-24T07:35:24.171Z,2.80
2022-09-24T07:38:05.118Z,3.10
2022-09-24T07:40:35.924Z,2.40
2022-09-24T07:43:15.841Z,2.70
2022-09-24T07:45:52.082Z,2.50
2022-09-24T07:48:26.685Z,3.20
2022-09-24T07:50:57.287Z,3.00
2022-09-24T07:53:28.302Z,2.50
2022-09-24T07:56:04.044Z,2.60
2022-09-24T07:58:36.178Z,2.70
2022-09-24T08:01:12.601Z,2.90
2022-09-24T08:03:47.983Z,2.60
2022-09-24T08:10:57.891Z,3.20
2022-09-24T08:13:28.710Z,3.20
2022-09-24T08:17:39.578Z,3.60
2022-09-24T08:20:31.293Z,2.90
2022-09-24T08:23:10.378Z,3.20
2022-09-24T08:25:42.653Z,2.90
2022-09-24T08:28:13.782Z,3.20
2022-09-24T08:30:45.166Z,2.90
2022-09-24T08:36:18.168Z,3.10
2022-09-24T08:38:51.168Z,3.50
2022-09-24T08:41:30.184Z,3.20
2022-09-24T08:44:13.893Z,3.40
2022-09-24T08:47:26.968Z,3.50
2022-09-24T08:50:07.200Z,2.60
2022-09-24T08:52:54.799Z,2.60
2022-09-24T08:55:40.087Z,3.10
2022-09-24T08:58:27.921Z,3.00
2022-09-24T09:01:14.462Z,3.50
2022-09-24T09:04:20.882Z,3.50
2022-09-24T09:07:28.591Z,11.20
2022-09-24T09:10:29.501Z,3.30
2022-09-24T09:13:25.316Z,12.40
2022-09-24T09:17:03.625Z,8.40
2022-09-24T09:19:40.399Z,3.10
2022-09-24T09:22:19.316Z,3.20
2022-09-24T09:25:01.244Z,3.00
2022-09-24T09:27:35.103Z,2.70
2022-09-24T09:30:13.918Z,2.60
2022-09-24T09:33:19.721Z,2.60
2022-09-24T09:36:34.381Z,2.20
2022-09-24T09:39:27.133Z,2.60
2022-09-24T09:42:27.708Z,2.50
2022-09-24T09:49:37.648Z,3.00
2022-09-24T09:52:29.341Z,2.80
2022-09-24T09:55:01.059Z,3.40
2022-09-24T09:57:31.878Z,3.10
2022-09-24T10:00:04.785Z,3.20
2022-09-24T10:02:45.708Z,3.50
2022-09-24T10:05:27.238Z,3.30
2022-09-24T10:07:59.231Z,3.50
2022-09-24T10:10:33.172Z,3.30
2022-09-24T10:13:14.052Z,3.10
2022-09-24T10:15:53.555Z,3.50
2022-09-24T10:18:32.028Z,3.80
2022-09-24T10:21:08.828Z,4.30
2022-09-24T10:23:45.633Z,4.30
2022-09-24T10:26:16.844Z,4.90
2022-09-24T10:29:13.570Z,4.40
2022-09-24T10:31:48.229Z,4.80
2022-09-24T10:34:28.805Z,4.90
2022-09-24T10:37:15.554Z,4.40
2022-09-24T10:39:46.230Z,4.20
2022-09-24T10:42:28.104Z,5.00
2022-09-24T10:45:04.095Z,4.80
2022-09-24T10:48:00.293Z,4.20
2022-09-24T10:50:37.018Z,4.00
2022-09-24T10:53:22.088Z,3.70
2022-09-24T10:56:06.937Z,3.20
2022-09-24T10:58:45.838Z,2.90
2022-09-24T11:01:45.632Z,2.90
2022-09-24T11:04:40.972Z,4.10
2022-09-24T11:07:23.461Z,4.10
2022-09-24T11:10:03.672Z,3.90
2022-09-24T11:13:51.525Z,2.80
2022-09-24T11:16:46.077Z,2.80
2022-09-24T11:19:52.620Z,2.00
2022-09-24T11:25:43.002Z,2.80
2022-09-24T11:28:26.048Z,3.10
2022-09-24T11:31:20.643Z,2.50
2022-09-24T11:34:17.589Z,2.70
2022-09-24T11:37:02.540Z,2.90
2022-09-24T11:40:16.569Z,2.70
2022-09-24T11:43:34.256Z,2.50
2022-09-24T11:46:30.710Z,2.40
2022-09-24T11:49:53.759Z,2.20
2022-09-24T11:52:47.247Z,2.50
2022-09-24T11:55:32.046Z,2.40
2022-09-24T11:58:18.543Z,3.00
2022-09-24T12:11:41.738Z,2.30
2022-09-24T12:14:42.341Z,2.20
2022-09-24T12:20:37.831Z,3.20
2022-09-24T12:23:15.143Z,3.10
2022-09-24T12:25:49.541Z,2.90
2022-09-24T12:28:38.849Z,1.70
2022-09-24T12:31:40.635Z,2.10
2022-09-24T12:34:16.586Z,2.10
2022-09-24T12:36:58.947Z,2.00
2022-09-24T12:39:48.732Z,1.90
2022-09-24T12:42:23.118Z,3.00
2022-09-24T12:45:01.117Z,3.80
2022-09-24T12:47:34.802Z,2.30
2022-09-24T12:50:09.964Z,1.80
2022-09-24T12:52:44.853Z,1.50
2022-09-24T12:56:03.395Z,1.40
2022-09-24T12:59:30.100Z,1.50
2022-09-24T13:06:40.005Z,1.70
2022-09-24T13:09:40.445Z,1.90
2022-09-24T13:12:19.519Z,1.80
2022-09-24T13:14:57.050Z,1.50
2022-09-24T13:17:27.460Z,1.50
2022-09-24T13:20:09.692Z,1.80
2022-09-24T13:22:43.218Z,1.80
2022-09-24T13:25:16.176Z,1.50
2022-09-24T13:27:58.904Z,1.40
2022-09-24T13:30:31.802Z,1.70
2022-09-24T13:33:11.088Z,1.70
2022-09-24T13:35:48.692Z,1.60
2022-09-24T13:41:16.628Z,1.70
2022-09-24T13:44:17.893Z,1.80
2022-09-24T13:46:51.959Z,2.00
2022-09-24T13:49:25.071Z,1.60
2022-09-24T13:52:19.105Z,1.80
2022-09-24T13:54:53.758Z,1.90
2022-09-24T13:57:26.933Z,2.00
2022-09-24T14:00:20.240Z,1.80
2022-09-24T14:03:22.492Z,1.70
2022-09-24T14:05:52.942Z,1.90
2022-09-24T14:08:24.979Z,1.70
2022-09-24T14:11:08.435Z,2.60
2022-09-24T14:13:47.410Z,3.00
2022-09-24T14:16:20.171Z,3.50
2022-09-24T14:19:16.444Z,2.70
2022-09-24T14:21:56.677Z,3.30
2022-09-24T14:24:31.819Z,3.40
2022-09-24T14:27:09.489Z,2.10
2022-09-24T14:29:48.619Z,2.60
2022-09-24T14:32:37.464Z,3.40
2022-09-24T14:35:10.840Z,3.50
2022-09-24T14:37:47.958Z,2.60
2022-09-24T14:40:21.805Z,3.20
2022-09-24T14:43:03.850Z,2.50
2022-09-24T14:50:30.205Z,2.70
2022-09-24T14:53:01.269Z,2.70
2022-09-24T14:55:43.380Z,2.50
2022-09-24T14:58:33.996Z,2.90
2022-09-24T15:01:08.726Z,2.30
2022-09-24T15:03:58.834Z,2.10
2022-09-24T15:06:34.480Z,2.10
2022-09-24T15:09:09.428Z,2.20
2022-09-24T15:11:49.291Z,2.50
2022-09-24T15:14:28.833Z,2.40
2022-09-24T15:17:25.980Z,2.20
2022-09-24T15:19:58.413Z,2.50
2022-09-24T15:22:31.168Z,2.60
2022-09-24T15:25:02.811Z,2.40
2022-09-24T15:27:36.284Z,2.80
2022-09-24T15:30:16.749Z,3.00
2022-09-24T15:32:51.666Z,3.00
2022-09-24T15:35:22.117Z,3.00
2022-09-24T15:37:53.039Z,2.70
2022-09-24T15:40:31.285Z,2.80
2022-09-24T15:43:01.728Z,2.30
2022-09-24T15:45:32.744Z,2.30
2022-09-24T15:48:03.112Z,2.50
2022-09-24T15:50:35.397Z,2.80
2022-09-24T15:53:06.838Z,2.30
2022-09-24T15:55:39.161Z,2.90
2022-09-24T15:58:19.476Z,2.50
2022-09-24T16:00:52.621Z,2.70
2022-09-24T16:03:28.183Z,2.70
2022-09-24T16:06:00.928Z,2.40
2022-09-24T16:08:31.989Z,2.40
2022-09-24T16:11:09.073Z,2.50
2022-09-24T16:13:42.761Z,2.60
2022-09-24T16:16:17.878Z,2.40
2022-09-24T16:18:51.813Z,2.40
2022-09-24T16:21:23.186Z,2.10
2022-09-24T16:24:01.309Z,2.20
2022-09-24T16:26:32.803Z,2.10
2022-09-24T16:29:06.099Z,2.30
2022-09-24T16:31:37.882Z,2.50
2022-09-24T16:34:08.907Z,2.50
2022-09-24T16:36:39.813Z,2.40
2022-09-24T16:39:14.201Z,2.10
2022-09-24T16:41:45.126Z,2.50
2022-09-24T16:44:16.224Z,2.10
2022-09-24T16:46:57.010Z,2.00
2022-09-24T16:49:52.292Z,2.90
2022-09-24T16:52:35.331Z,2.40
2022-09-24T16:55:06.198Z,2.00
2022-09-24T16:57:42.187Z,2.30
2022-09-24T17:00:39.489Z,2.00
2022-09-24T17:03:20.278Z,2.20
2022-09-24T17:06:23.219Z,2.60
2022-09-24T17:09:47.784Z,2.40
2022-09-24T17:15:39.936Z,2.40
2022-09-24T17:18:17.517Z,2.60
2022-09-24T17:21:04.133Z,2.70
2022-09-24T17:24:02.537Z,2.80
2022-09-24T17:26:37.694Z,2.70
2022-09-24T17:29:27.735Z,2.50
2022-09-24T17:32:12.542Z,3.20
2022-09-24T17:34:49.455Z,2.80
2022-09-24T17:38:30.988Z,2.90
2022-09-24T17:41:04.965Z,3.00
2022-09-24T17:43:39.090Z,2.70
2022-09-24T17:46:22.970Z,2.30
2022-09-24T17:49:04.899Z,2.60
2022-09-24T17:56:34.828Z,2.00
2022-09-24T17:59:18.853Z,1.90
2022-09-24T18:02:09.881Z,2.10
2022-09-24T18:04:44.274Z,2.10
2022-09-24T18:07:33.875Z,2.30
2022-09-24T18:10:18.990Z,2.70
2022-09-24T18:14:13.697Z,2.50
2022-09-24T18:16:57.909Z,2.40
2022-09-24T18:19:41.523Z,2.60
2022-09-24T18:22:49.806Z,2.80
2022-09-24T18:25:30.492Z,2.20
2022-09-24T18:28:09.168Z,2.50
2022-09-24T18:30:43.788Z,2.30
2022-09-24T18:33:14.008Z,2.50
2022-09-24T18:35:44.921Z,2.60
2022-09-24T18:38:58.342Z,2.50
2022-09-24T18:41:31.381Z,2.10
2022-09-24T18:44:04.138Z,2.50
2022-09-24T18:51:07.542Z,2.50
2022-09-24T18:55:09.778Z,2.50
2022-09-24T18:57:43.827Z,2.50
2022-09-24T19:00:30.516Z,2.40
2022-09-24T19:03:01.730Z,2.90
2022-09-24T19:05:32.595Z,2.80
2022-09-24T19:08:03.428Z,2.80
2022-09-24T19:10:35.279Z,3.00
2022-09-24T19:18:18.599Z,2.70
2022-09-24T19:20:50.844Z,3.00
2022-09-24T19:23:25.096Z,2.60
2022-09-24T19:26:03.326Z,2.60
2022-09-24T19:28:36.185Z,3.00
2022-09-24T19:31:15.550Z,2.80
2022-09-24T19:33:47.446Z,2.90
2022-09-24T19:36:19.227Z,2.90
2022-09-24T19:38:54.376Z,3.00
2022-09-24T19:41:27.408Z,4.10
2022-09-24T19:44:09.099Z,3.80
2022-09-24T19:49:14.042Z,2.90
2022-09-24T19:51:44.822Z,2.90
2022-09-24T19:54:15.477Z,3.10
2022-09-24T19:56:46.894Z,3.20
2022-09-24T19:59:17.059Z,2.70
2022-09-24T20:01:50.415Z,2.90
2022-09-24T20:04:21.189Z,3.00
2022-09-24T20:06:53.330Z,3.00
2022-09-24T20:09:24.192Z,3.10
2022-09-24T20:12:17.619Z,3.10
2022-09-24T20:14:48.417Z,2.90
2022-09-24T20:17:30.776Z,3.10
2022-09-24T20:20:03.338Z,3.10
2022-09-24T20:22:35.095Z,4.00
2022-09-24T20:25:11.261Z,3.50
2022-09-24T20:27:56.234Z,3.50
2022-09-24T20:30:27.962Z,3.50
2022-09-24T20:33:01.114Z,3.60
2022-09-24T20:35:36.429Z,4.40
2022-09-24T20:38:10.987Z,3.50
2022-09-24T20:40:46.107Z,3.90
2022-09-24T20:43:18.366Z,4.60
2022-09-24T20:45:48.815Z,4.30
2022-09-24T20:48:25.073Z,4.20
2022-09-24T20:51:00.314Z,3.80
2022-09-24T20:53:31.128Z,3.90
2022-09-24T20:56:05.368Z,3.60
2022-09-24T20:58:38.539Z,3.90
2022-09-24T21:01:14.921Z,4.30
2022-09-24T21:03:50.337Z,4.60
2022-09-24T21:06:23.380Z,4.60
2022-09-24T21:08:56.431Z,4.20
2022-09-24T21:11:29.999Z,4.30
2022-09-24T21:14:03.275Z,4.70
2022-09-24T21:16:36.010Z,4.60
2022-09-24T21:19:12.802Z,5.10
2022-09-24T21:21:48.048Z,4.30
2022-09-24T21:24:26.344Z,4.60
2022-09-24T21:27:00.837Z,4.20
2022-09-24T21:29:32.216Z,4.50
2022-09-24T21:32:05.572Z,4.00
2022-09-24T21:34:44.929Z,4.50
2022-09-24T21:37:16.653Z,4.40
2022-09-24T21:39:48.148Z,4.30
2022-09-24T21:42:18.751Z,4.60
2022-09-24T21:44:49.666Z,4.50
2022-09-24T21:47:22.632Z,4.50
2022-09-24T21:49:53.863Z,4.20
2022-09-24T21:52:24.791Z,4.90
2022-09-24T21:54:55.016Z,4.50
2022-09-24T21:57:26.119Z,4.80
2022-09-24T22:00:10.396Z,5.00
2022-09-24T22:02:43.514Z,5.40
2022-09-24T22:05:20.334Z,4.50
2022-09-24T22:07:51.340Z,4.00
2022-09-24T22:10:21.720Z,4.50
2022-09-24T22:12:52.311Z,4.60
2022-09-24T22:15:23.300Z,4.70
2022-09-24T22:17:53.938Z,5.50
2022-09-24T22:20:24.269Z,5.40
2022-09-24T22:22:54.661Z,5.60
2022-09-24T22:25:25.136Z,5.30
2022-09-24T22:27:55.643Z,5.50
2022-09-24T22:30:26.246Z,5.80
2022-09-24T22:33:00.033Z,5.80
2022-09-24T22:35:50.971Z,5.70
2022-09-24T22:38:21.402Z,5.20
2022-09-24T22:40:52.495Z,5.40
2022-09-24T22:43:23.111Z,5.50
2022-09-24T22:46:02.808Z,5.30
2022-09-24T22:48:34.646Z,5.60
2022-09-24T22:51:06.490Z,5.70
2022-09-24T22:53:39.093Z,5.30
2022-09-24T22:56:17.573Z,5.70
2022-09-24T22:58:53.536Z,5.70
2022-09-24T23:01:29.724Z,6.10
2022-09-24T23:04:00.809Z,6.90
2022-09-24T23:06:33.320Z,7.30
2022-09-24T23:09:05.826Z,7.30
2022-09-24T23:11:40.412Z,6.30
2022-09-24T23:14:17.295Z,6.60
2022-09-24T23:16:48.225Z,6.30
2022-09-24T23:19:21.337Z,6.00
2022-09-24T23:21:51.865Z,7.10
2022-09-24T23:24:22.834Z,6.90
2022-09-24T23:26:57.425Z,7.60
2022-09-24T23:29:27.799Z,7.90
2022-09-24T23:31:58.315Z,6.80
2022-09-24T23:34:28.895Z,7.90
2022-09-24T23:36:59.370Z,7.80
2022-09-24T23:39:30.098Z,7.60
2022-09-24T23:42:00.711Z,7.10
2022-09-24T23:44:31.218Z,7.10
2022-09-24T23:47:04.781Z,7.00
2022-09-24T23:49:35.285Z,6.50
2022-09-24T23:52:06.276Z,6.80
2022-09-24T23:54:42.504Z,6.70
2022-09-24T23:57:12.866Z,7.10
2022-09-24T23:59:43.253Z,6.50
